Time;durP1;ratioP1;P1;durP2;ratioP2;P2;SDS_P1;SDS_P2;PMS_P1;PMS_P2;Temp;Humidity;BMP_temperature;BMP_pressure;BME280_temperature;BME280_humidity;BME280_pressure;Samples;Min_cycle;Max_cycle;Signal;HPM_P1;HPM_P2
2023/03/04 00:01:41;;;;;;;30.60;27.87;;;7.40;24.80;;;;;;4970796;28;20237;-58
2023/03/04 00:04:06;;;;;;;28.70;25.97;;;7.60;24.60;;;;;;4971522;28;20178;-55
2023/03/04 00:06:32;;;;;;;31.67;28.63;;;7.60;23.80;;;;;;4970555;28;20245;-56
2023/03/04 00:08:58;;;;;;;30.33;27.67;;;7.60;24.30;;;;;;4970649;28;20197;-56
2023/03/04 00:11:24;;;;;;;32.60;29.70;;;7.70;23.70;;;;;;4971144;28;20422;-55
2023/03/04 00:13:49;;;;;;;29.57;27.00;;;7.80;23.30;;;;;;4970816;28;20597;-55
2023/03/04 00:16:15;;;;;;;31.83;29.03;;;7.70;23.60;;;;;;4970472;28;20426;-54
2023/03/04 00:18:41;;;;;;;31.97;28.77;;;7.70;23.60;;;;;;4970613;28;20277;-56
2023/03/04 00:21:07;;;;;;;29.03;26.50;;;7.50;23.70;;;;;;4970203;28;20430;-56
2023/03/04 00:23:32;;;;;;;31.83;28.90;;;7.00;24.60;;;;;;4970912;28;20171;-53
2023/03/04 00:25:58;;;;;;;28.57;25.97;;;7.00;25.00;;;;;;4969747;28;20183;-55
2023/03/04 00:28:24;;;;;;;30.60;28.00;;;7.00;24.80;;;;;;4970382;28;20175;-56
2023/03/04 00:30:49;;;;;;;28.60;25.97;;;7.10;24.80;;;;;;4970171;28;20186;-53
2023/03/04 00:33:15;;;;;;;29.20;26.60;;;7.30;24.30;;;;;;4970572;28;20190;-56
2023/03/04 00:35:41;;;;;;;29.60;27.00;;;7.40;24.10;;;;;;4965646;28;20542;-41
2023/03/04 00:38:07;;;;;;;29.30;26.77;;;7.50;23.70;;;;;;4956250;28;20180;-44
2023/03/04 00:40:33;;;;;;;30.43;27.67;;;7.70;23.50;;;;;;4933540;28;20191;-44
2023/03/04 00:42:59;;;;;;;29.10;26.60;;;7.80;22.90;;;;;;4964095;28;20463;-44
2023/03/04 00:45:24;;;;;;;30.00;27.27;;;7.90;22.60;;;;;;4964634;28;20262;-42
2023/03/04 00:47:50;;;;;;;30.13;27.57;;;7.90;22.60;;;;;;4964762;28;20175;-45
2023/03/04 00:50:16;;;;;;;29.93;26.97;;;8.00;22.60;;;;;;4965099;28;20246;-45
2023/03/04 00:52:41;;;;;;;28.80;25.80;;;8.00;22.60;;;;;;4950048;28;20183;-45
2023/03/04 00:55:08;;;;;;;29.63;26.97;;;8.00;22.20;;;;;;4964291;28;20465;-43
2023/03/04 00:57:34;;;;;;;28.27;25.37;;;8.10;22.20;;;;;;4950015;28;20218;-44
2023/03/04 00:59:59;;;;;;;28.70;26.20;;;8.10;22.10;;;;;;4965257;28;20485;-43
2023/03/04 01:02:25;;;;;;;28.50;25.90;;;8.10;21.70;;;;;;4965694;28;20986;-45
2023/03/04 01:04:51;;;;;;;29.97;27.37;;;8.20;21.50;;;;;;4963837;28;20183;-47
2023/03/04 01:07:17;;;;;;;28.00;25.50;;;8.10;21.50;;;;;;4956544;28;20684;-56
2023/03/04 01:09:42;;;;;;;27.80;25.30;;;8.10;21.50;;;;;;4955097;28;20291;-53
2023/03/04 01:12:08;;;;;;;29.90;27.00;;;8.10;21.60;;;;;;4956738;28;20423;-56
2023/03/04 01:14:34;;;;;;;28.83;26.13;;;8.00;21.40;;;;;;4956136;28;20179;-56
2023/03/04 01:16:59;;;;;;;28.40;25.60;;;8.00;21.40;;;;;;4946189;28;20649;-56
2023/03/04 01:19:25;;;;;;;30.57;27.67;;;8.00;21.50;;;;;;4931344;29;20199;-57
2023/03/04 01:21:51;;;;;;;27.93;25.50;;;8.00;21.50;;;;;;4946336;29;20673;-56
2023/03/04 01:24:17;;;;;;;28.87;26.17;;;8.00;21.60;;;;;;4947016;29;20176;-58
2023/03/04 01:26:42;;;;;;;29.97;27.40;;;8.00;21.50;;;;;;4946657;29;20176;-57
2023/03/04 01:29:08;;;;;;;27.60;25.10;;;7.90;21.80;;;;;;4947047;29;20423;-57
2023/03/04 01:31:33;;;;;;;30.20;27.20;;;7.90;21.70;;;;;;4946138;29;20187;-57
2023/03/04 01:33:59;;;;;;;28.43;25.83;;;7.90;21.60;;;;;;4946277;29;20198;-57
2023/03/04 01:36:25;;;;;;;29.10;26.50;;;7.90;22.00;;;;;;4946361;29;20704;-56
2023/03/04 01:38:50;;;;;;;29.70;27.00;;;7.90;21.70;;;;;;4946179;29;20179;-54
2023/03/04 01:41:20;;;;;;;30.00;27.37;;;8.00;21.60;;;;;;4946279;29;20238;-58
2023/03/04 01:43:46;;;;;;;29.40;26.70;;;7.90;21.70;;;;;;4945835;29;20176;-46
2023/03/04 01:46:13;;;;;;;29.53;26.93;;;7.90;21.70;;;;;;4946380;29;20841;-47
2023/03/04 01:48:40;;;;;;;27.17;24.77;;;7.90;21.70;;;;;;4945772;29;20542;-43
2023/03/04 01:51:12;;;;;;;28.03;25.43;;;7.60;22.40;;;;;;4946301;29;20422;-47
2023/03/04 01:53:38;;;;;;;28.17;25.67;;;7.60;22.40;;;;;;4953791;28;20414;-44
2023/03/04 01:56:20;;;;;;;27.13;24.70;;;7.40;22.30;;;;;;4975309;28;20510;-48
2023/03/04 01:59:06;;;;;;;28.87;26.20;;;7.20;22.40;;;;;;4957124;28;20259;-43
2023/03/04 02:01:32;;;;;;;29.37;26.97;;;7.10;23.00;;;;;;4960325;28;20450;-47
2023/03/04 02:03:58;;;;;;;28.53;26.00;;;6.50;24.40;;;;;;4955295;28;20423;-46
2023/03/04 02:06:23;;;;;;;28.43;25.97;;;6.20;24.90;;;;;;4964642;28;20497;-48
2023/03/04 02:08:49;;;;;;;30.27;27.67;;;6.20;25.00;;;;;;4964421;28;20195;-48
2023/03/04 02:11:15;;;;;;;27.83;25.50;;;6.00;25.50;;;;;;4964803;28;20586;-44
2023/03/04 02:13:40;;;;;;;28.13;25.80;;;5.90;25.80;;;;;;4964814;28;20263;-45
2023/03/04 02:16:06;;;;;;;30.40;27.70;;;6.00;25.60;;;;;;4974761;28;20198;-48
2023/03/04 02:18:32;;;;;;;27.87;25.40;;;6.30;25.20;;;;;;4972536;28;20175;-44
2023/03/04 02:21:14;;;;;;;28.73;26.13;;;6.30;24.50;;;;;;4956258;28;20425;-49
2023/03/04 02:24:01;;;;;;;28.30;25.87;;;6.30;25.20;;;;;;4974586;28;20675;-46
2023/03/04 02:26:28;;;;;;;27.40;25.20;;;6.40;24.20;;;;;;4970770;28;20410;-48
2023/03/04 02:28:56;;;;;;;28.30;25.90;;;6.40;24.80;;;;;;4957717;28;20445;-50
2023/03/04 02:31:35;;;;;;;27.07;24.80;;;6.50;24.40;;;;;;4975041;28;20410;-45
2023/03/04 02:34:08;;;;;;;27.30;24.70;;;6.50;24.60;;;;;;4975187;28;20425;-45
2023/03/04 02:36:35;;;;;;;26.47;24.17;;;6.60;24.40;;;;;;4974190;28;20434;-44
2023/03/04 02:39:05;;;;;;;26.13;23.83;;;6.60;24.30;;;;;;4956201;28;20430;-43
2023/03/04 02:41:32;;;;;;;27.27;24.77;;;6.70;24.10;;;;;;4962143;28;20449;-58
2023/03/04 02:43:58;;;;;;;28.03;25.70;;;6.70;23.90;;;;;;4966176;28;20410;-56
2023/03/04 02:46:23;;;;;;;26.20;23.97;;;6.70;23.80;;;;;;4966917;28;20991;-55
2023/03/04 02:48:50;;;;;;;26.63;24.43;;;6.70;23.90;;;;;;4966607;28;20662;-55
2023/03/04 02:51:16;;;;;;;27.10;24.80;;;6.60;23.60;;;;;;4967423;28;20183;-55
2023/03/04 02:53:42;;;;;;;29.07;26.43;;;6.60;24.10;;;;;;4967169;28;20421;-54
2023/03/04 02:56:08;;;;;;;27.63;25.43;;;6.60;24.00;;;;;;4967515;28;20771;-57
2023/03/04 02:58:33;;;;;;;26.53;24.40;;;6.70;23.70;;;;;;4967898;28;20265;-58
2023/03/04 03:00:59;;;;;;;28.03;25.70;;;6.40;24.20;;;;;;4967559;28;20181;-56
2023/03/04 03:03:25;;;;;;;26.67;24.27;;;6.40;24.20;;;;;;4967843;28;20218;-55
2023/03/04 03:05:52;;;;;;;27.27;25.03;;;6.50;24.70;;;;;;4967417;28;20530;-57
2023/03/04 03:08:18;;;;;;;26.90;24.50;;;6.40;24.20;;;;;;4967193;28;20613;-58
2023/03/04 03:10:43;;;;;;;27.73;25.50;;;6.20;24.70;;;;;;4970536;28;20426;-46
2023/03/04 03:13:09;;;;;;;27.00;24.80;;;6.30;24.60;;;;;;4971895;28;20186;-43
2023/03/04 03:15:35;;;;;;;27.80;25.37;;;6.30;25.20;;;;;;4970851;28;20214;-42
2023/03/04 03:18:00;;;;;;;26.90;24.67;;;6.20;24.60;;;;;;4970810;28;20182;-42
2023/03/04 03:20:26;;;;;;;27.50;25.20;;;6.10;24.90;;;;;;4970544;28;20756;-43
2023/03/04 03:22:52;;;;;;;27.73;25.33;;;6.00;25.30;;;;;;4970475;28;20230;-47
2023/03/04 03:25:17;;;;;;;27.47;25.17;;;5.90;25.40;;;;;;4970499;28;20539;-42
2023/03/04 03:27:43;;;;;;;28.47;26.00;;;6.00;25.50;;;;;;4970234;28;20269;-44
2023/03/04 03:30:12;;;;;;;26.10;24.00;;;6.20;24.90;;;;;;4970949;28;20510;-42
2023/03/04 03:32:37;;;;;;;27.00;24.63;;;6.30;24.50;;;;;;4970942;28;20175;-43
2023/03/04 03:35:03;;;;;;;25.77;23.57;;;6.40;24.40;;;;;;4987255;28;20426;-43
2023/03/04 03:37:29;;;;;;;26.97;24.87;;;6.50;24.20;;;;;;4986708;28;20624;-46
2023/03/04 03:39:55;;;;;;;27.33;24.80;;;6.60;24.10;;;;;;4985956;28;20485;-43
2023/03/04 03:42:20;;;;;;;26.37;23.73;;;6.70;23.80;;;;;;4970196;28;20237;-45
2023/03/04 03:44:46;;;;;;;26.97;24.60;;;6.70;23.40;;;;;;4970636;28;20178;-43
2023/03/04 03:47:12;;;;;;;26.47;24.27;;;6.50;23.60;;;;;;4970909;28;20585;-57
2023/03/04 03:49:37;;;;;;;28.50;26.20;;;6.20;24.90;;;;;;4970888;28;20479;-54
2023/03/04 03:52:03;;;;;;;28.40;25.87;;;6.10;25.40;;;;;;4970114;28;20190;-44
2023/03/04 03:54:29;;;;;;;28.23;25.97;;;6.30;25.00;;;;;;4970153;28;20183;-45
2023/03/04 03:56:55;;;;;;;28.57;26.27;;;6.40;24.40;;;;;;4969743;28;20977;-46
2023/03/04 03:59:20;;;;;;;28.50;26.20;;;6.60;24.10;;;;;;4971970;28;20179;-44
2023/03/04 04:01:46;;;;;;;27.97;25.57;;;6.70;23.70;;;;;;4969693;28;20202;-43
2023/03/04 04:04:13;;;;;;;27.10;24.90;;;6.80;23.40;;;;;;4970400;28;20686;-44
2023/03/04 04:06:38;;;;;;;26.90;24.50;;;6.90;23.30;;;;;;4969577;28;20598;-42
2023/03/04 04:09:04;;;;;;;27.50;25.30;;;6.90;23.10;;;;;;4969560;28;20469;-43
2023/03/04 04:11:29;;;;;;;27.63;25.33;;;7.00;23.00;;;;;;4969972;28;20183;-44
2023/03/04 04:13:55;;;;;;;27.93;25.57;;;7.00;22.80;;;;;;4969861;28;20183;-43
2023/03/04 04:16:21;;;;;;;28.07;25.67;;;7.00;22.70;;;;;;4970061;28;20226;-44
2023/03/04 04:18:46;;;;;;;27.13;25.00;;;7.00;22.70;;;;;;4969653;28;20595;-44
2023/03/04 04:21:13;;;;;;;26.97;24.67;;;7.00;22.60;;;;;;4969143;28;20221;-44
2023/03/04 04:23:39;;;;;;;26.23;23.97;;;7.00;22.80;;;;;;4969744;28;20236;-42
2023/03/04 04:26:04;;;;;;;26.63;24.43;;;6.90;23.00;;;;;;4969976;28;21098;-49
2023/03/04 04:28:30;;;;;;;27.97;25.67;;;6.60;23.20;;;;;;4986058;28;20175;-51
2023/03/04 04:30:55;;;;;;;25.77;23.63;;;6.30;24.40;;;;;;4969313;28;20314;-47
2023/03/04 04:33:21;;;;;;;27.50;25.10;;;6.00;25.20;;;;;;4971214;28;20174;-57
2023/03/04 04:35:47;;;;;;;26.03;23.93;;;5.80;25.70;;;;;;4969496;28;20189;-55
2023/03/04 04:38:12;;;;;;;26.13;23.93;;;6.00;25.00;;;;;;4969422;28;20186;-57
2023/03/04 04:40:38;;;;;;;26.93;24.70;;;5.90;25.40;;;;;;4969103;28;20193;-48
2023/03/04 04:43:04;;;;;;;26.10;23.90;;;5.80;25.50;;;;;;4969672;28;20228;-55
2023/03/04 04:45:29;;;;;;;27.57;25.37;;;5.60;25.90;;;;;;4969894;28;20186;-58
2023/03/04 04:47:56;;;;;;;27.90;25.47;;;5.50;26.30;;;;;;4969594;28;20229;-57
2023/03/04 04:50:23;;;;;;;26.30;24.10;;;5.60;26.30;;;;;;4969643;28;20221;-58
2023/03/04 04:52:49;;;;;;;25.07;22.90;;;5.70;26.40;;;;;;4970767;28;20456;-58
2023/03/04 04:55:14;;;;;;;23.63;21.70;;;6.00;25.70;;;;;;4969789;28;20895;-57
2023/03/04 04:57:40;;;;;;;26.77;24.43;;;6.20;25.00;;;;;;4970103;28;20266;-58
2023/03/04 05:00:07;;;;;;;25.83;23.63;;;6.60;24.20;;;;;;4970316;28;20723;-57
2023/03/04 05:02:35;;;;;;;24.40;22.30;;;6.80;23.80;;;;;;4970300;28;20222;-59
2023/03/04 05:05:05;;;;;;;26.03;23.93;;;6.80;22.50;;;;;;4969887;28;20788;-59
2023/03/04 05:07:31;;;;;;;26.00;23.80;;;6.30;24.00;;;;;;4969953;28;20453;-58
2023/03/04 05:09:56;;;;;;;25.90;23.80;;;6.10;24.70;;;;;;4970211;28;20426;-43
2023/03/04 05:12:22;;;;;;;25.90;23.80;;;5.70;25.10;;;;;;4969974;28;20418;-46
2023/03/04 05:14:48;;;;;;;26.67;24.27;;;5.70;25.70;;;;;;4970630;28;20197;-46
2023/03/04 05:17:13;;;;;;;25.57;23.27;;;5.60;25.50;;;;;;4970148;28;20186;-41
2023/03/04 05:19:39;;;;;;;26.03;23.80;;;5.60;26.10;;;;;;4970262;28;20182;-41
2023/03/04 05:22:05;;;;;;;25.57;23.40;;;6.00;25.50;;;;;;4986403;28;20221;-45
2023/03/04 05:24:30;;;;;;;25.53;23.33;;;6.30;24.50;;;;;;4971028;28;20182;-42
2023/03/04 05:26:56;;;;;;;25.90;23.70;;;6.50;24.50;;;;;;4970919;28;20178;-42
2023/03/04 05:29:22;;;;;;;25.67;23.43;;;6.70;23.60;;;;;;4970479;28;20178;-42
2023/03/04 05:31:47;;;;;;;25.53;23.43;;;6.80;23.10;;;;;;4970079;28;20631;-42
2023/03/04 05:34:13;;;;;;;24.10;22.00;;;6.90;22.70;;;;;;4970668;28;20233;-46
2023/03/04 05:36:39;;;;;;;27.03;24.73;;;6.90;22.40;;;;;;4971456;28;20190;-45
2023/03/04 05:39:04;;;;;;;26.10;23.90;;;7.00;22.30;;;;;;4970492;28;20192;-49
2023/03/04 05:41:30;;;;;;;28.27;25.80;;;7.00;22.00;;;;;;4971043;28;20190;-49
2023/03/04 05:43:56;;;;;;;28.33;26.00;;;7.00;22.10;;;;;;4970899;28;20214;-46
2023/03/04 05:46:24;;;;;;;26.47;24.23;;;6.70;21.80;;;;;;4972005;28;20174;-45
2023/03/04 05:48:50;;;;;;;26.43;24.30;;;6.70;23.20;;;;;;4971544;28;20587;-48
2023/03/04 05:51:16;;;;;;;28.00;25.47;;;6.70;23.00;;;;;;4966117;28;20851;-50
2023/03/04 05:53:42;;;;;;;26.73;24.33;;;6.60;22.50;;;;;;4973133;28;20501;-48
2023/03/04 05:56:16;;;;;;;26.83;24.50;;;6.00;24.50;;;;;;4971615;28;20171;-46
2023/03/04 05:58:42;;;;;;;27.53;25.13;;;5.90;25.00;;;;;;4971133;28;20592;-48
2023/03/04 06:01:08;;;;;;;27.77;25.17;;;6.00;24.70;;;;;;4971141;28;20759;-46
2023/03/04 06:03:34;;;;;;;28.90;26.47;;;6.00;24.30;;;;;;4971028;28;20754;-42
2023/03/04 06:06:00;;;;;;;26.77;24.50;;;5.70;24.80;;;;;;4970897;28;20187;-46
2023/03/04 06:08:26;;;;;;;28.20;25.50;;;5.30;25.80;;;;;;4970825;28;20445;-44
2023/03/04 06:10:55;;;;;;;28.80;26.10;;;5.10;26.50;;;;;;4970859;28;20179;-45
2023/03/04 06:13:21;;;;;;;28.30;25.80;;;4.90;27.30;;;;;;4971269;28;20410;-44
2023/03/04 06:15:47;;;;;;;27.90;25.50;;;4.70;27.90;;;;;;4971163;28;20421;-44
2023/03/04 06:18:12;;;;;;;28.90;26.23;;;4.50;28.20;;;;;;4972251;28;20422;-42
2023/03/04 06:20:38;;;;;;;28.23;25.70;;;4.50;28.50;;;;;;4970896;28;20194;-44
2023/03/04 06:23:04;;;;;;;31.67;28.73;;;4.50;28.50;;;;;;4970970;28;20206;-43
2023/03/04 06:25:30;;;;;;;30.87;27.97;;;4.70;28.60;;;;;;4971024;28;20185;-41
2023/03/04 06:27:56;;;;;;;29.77;27.03;;;4.90;27.90;;;;;;4971088;28;20418;-45
2023/03/04 06:30:22;;;;;;;29.73;27.13;;;4.90;27.60;;;;;;4970947;28;20505;-42
2023/03/04 06:32:48;;;;;;;30.10;27.40;;;5.10;27.60;;;;;;4970532;28;20266;-44
2023/03/04 06:35:15;;;;;;;26.47;24.07;;;5.10;27.30;;;;;;4971166;28;20496;-47
2023/03/04 06:37:41;;;;;;;28.93;26.50;;;5.30;28.60;;;;;;4971051;28;20202;-47
2023/03/04 06:40:09;;;;;;;28.87;26.30;;;5.40;27.80;;;;;;4970783;28;20780;-46
2023/03/04 06:42:35;;;;;;;31.23;28.27;;;5.40;28.10;;;;;;4969809;28;20496;-44
2023/03/04 06:45:02;;;;;;;27.23;24.93;;;5.40;28.00;;;;;;4957800;28;20419;-43
2023/03/04 06:47:28;;;;;;;29.30;26.80;;;5.00;28.30;;;;;;4967321;28;20438;-44
2023/03/04 06:49:54;;;;;;;29.67;26.97;;;5.00;28.20;;;;;;4971675;28;20430;-44
2023/03/04 06:52:20;;;;;;;29.23;26.63;;;5.10;27.90;;;;;;4970984;28;20511;-46
2023/03/04 06:54:46;;;;;;;28.00;25.40;;;5.30;27.40;;;;;;4971166;28;20183;-45
2023/03/04 06:57:12;;;;;;;29.90;27.07;;;5.40;27.00;;;;;;4971490;28;20187;-43
2023/03/04 06:59:38;;;;;;;30.87;28.07;;;5.30;26.70;;;;;;4971888;28;20183;-57
2023/03/04 07:02:04;;;;;;;29.80;27.07;;;4.90;28.40;;;;;;4970660;28;20458;-56
2023/03/04 07:04:30;;;;;;;30.20;27.40;;;4.90;28.30;;;;;;4974277;28;20437;-55
2023/03/04 07:06:55;;;;;;;29.80;26.93;;;5.00;28.70;;;;;;4974803;28;20190;-57
2023/03/04 07:09:21;;;;;;;31.37;28.37;;;4.80;28.70;;;;;;4974368;28;20442;-55
2023/03/04 07:11:47;;;;;;;31.03;28.33;;;5.00;29.70;;;;;;4974019;28;20182;-55
2023/03/04 07:14:12;;;;;;;30.00;27.30;;;5.20;28.90;;;;;;4973903;28;20186;-56
2023/03/04 07:16:38;;;;;;;29.50;27.00;;;5.40;29.00;;;;;;4974323;28;20545;-56
2023/03/04 07:19:04;;;;;;;30.10;27.37;;;5.60;28.00;;;;;;4973577;28;20183;-57
2023/03/04 07:21:30;;;;;;;29.10;26.57;;;5.70;28.20;;;;;;4973552;28;20187;-56
2023/03/04 07:23:56;;;;;;;28.60;26.23;;;5.60;27.60;;;;;;4974927;28;20779;-54
2023/03/04 07:26:21;;;;;;;30.17;27.50;;;5.60;27.20;;;;;;4973622;28;20538;-56
2023/03/04 07:28:47;;;;;;;28.30;25.90;;;5.70;27.20;;;;;;4973482;28;20446;-57
2023/03/04 07:31:24;;;;;;;27.53;25.00;;;5.70;27.30;;;;;;4964997;28;20450;-58
2023/03/04 07:33:50;;;;;;;28.07;25.57;;;5.80;26.50;;;;;;4969907;28;20206;-58
2023/03/04 07:36:18;;;;;;;27.37;24.87;;;5.90;26.50;;;;;;4970317;28;20823;-57
2023/03/04 07:38:48;;;;;;;28.90;26.43;;;5.90;25.90;;;;;;4970366;28;20419;-57
2023/03/04 07:41:15;;;;;;;29.93;27.37;;;5.10;28.40;;;;;;4953717;29;20407;-57
2023/03/04 07:43:41;;;;;;;29.07;26.67;;;5.00;29.20;;;;;;4969976;28;20427;-57
2023/03/04 07:46:07;;;;;;;27.70;25.37;;;5.10;28.90;;;;;;4970038;28;20419;-58
2023/03/04 07:48:33;;;;;;;27.73;25.47;;;4.80;28.70;;;;;;4970701;28;20433;-58
2023/03/04 07:51:06;;;;;;;25.47;23.37;;;5.10;28.90;;;;;;4969734;28;20423;-56
2023/03/04 07:53:32;;;;;;;26.23;24.13;;;5.40;27.80;;;;;;4970660;28;20321;-58
2023/03/04 07:55:58;;;;;;;26.70;24.57;;;5.70;27.00;;;;;;4953687;28;20418;-57
2023/03/04 07:58:23;;;;;;;26.90;24.60;;;5.80;26.20;;;;;;4954649;28;20900;-56
2023/03/04 08:00:49;;;;;;;26.47;24.13;;;5.80;25.90;;;;;;4954210;29;20180;-57
2023/03/04 08:03:15;;;;;;;27.00;24.70;;;5.70;26.40;;;;;;4952713;29;20502;-56
2023/03/04 08:05:40;;;;;;;41.20;37.60;;;5.70;26.40;;;;;;4959363;28;20223;-57
2023/03/04 08:08:06;;;;;;;25.93;23.70;;;5.30;26.80;;;;;;4964666;28;20562;-56
2023/03/04 08:10:31;;;;;;;27.23;24.93;;;5.40;27.50;;;;;;4970179;28;20186;-56
2023/03/04 08:12:57;;;;;;;27.33;25.00;;;5.40;27.80;;;;;;4969703;28;20206;-56
2023/03/04 08:15:23;;;;;;;25.67;23.67;;;5.50;27.40;;;;;;4969979;28;20552;-58
2023/03/04 08:17:49;;;;;;;25.93;23.73;;;5.50;27.30;;;;;;4969827;28;20187;-57
2023/03/04 08:20:15;;;;;;;26.60;24.40;;;5.60;27.00;;;;;;4969789;28;20502;-47
2023/03/04 08:22:40;;;;;;;25.80;23.60;;;5.70;26.60;;;;;;4969104;28;20214;-48
2023/03/04 08:25:06;;;;;;;26.13;23.90;;;5.70;26.40;;;;;;4969677;28;20179;-49
2023/03/04 08:27:32;;;;;;;26.77;24.30;;;5.80;26.50;;;;;;4969302;28;20238;-56
2023/03/04 08:29:58;;;;;;;26.40;24.10;;;5.90;26.20;;;;;;4969929;28;20407;-57
2023/03/04 08:32:23;;;;;;;26.37;24.17;;;5.80;26.50;;;;;;4961641;28;20641;-56
2023/03/04 08:34:49;;;;;;;27.10;24.70;;;5.80;26.50;;;;;;4950205;29;20180;-57
2023/03/04 08:37:15;;;;;;;27.10;24.80;;;5.60;27.20;;;;;;4950352;29;20188;-56
2023/03/04 08:39:40;;;;;;;27.57;25.27;;;5.70;27.10;;;;;;4949862;29;20208;-57
2023/03/04 08:42:06;;;;;;;27.60;25.37;;;5.70;26.80;;;;;;4949485;28;20200;-58
2023/03/04 08:44:31;;;;;;;27.90;25.40;;;5.70;26.70;;;;;;4938886;29;20184;-57
2023/03/04 08:46:57;;;;;;;27.27;24.87;;;5.80;26.90;;;;;;4969044;28;20611;-57
2023/03/04 08:49:23;;;;;;;25.17;23.17;;;5.90;26.80;;;;;;4971072;28;20263;-57
2023/03/04 08:51:48;;;;;;;28.23;25.70;;;5.80;26.40;;;;;;4969637;28;20538;-56
2023/03/04 08:54:14;;;;;;;29.30;26.90;;;5.60;27.50;;;;;;4948859;28;20574;-57
2023/03/04 08:56:40;;;;;;;28.80;26.20;;;5.50;27.70;;;;;;4956650;28;20183;-57
2023/03/04 08:59:06;;;;;;;31.40;28.70;;;5.70;27.40;;;;;;4968823;28;20171;-58
2023/03/04 09:01:31;;;;;;;30.80;27.90;;;5.60;27.40;;;;;;4952912;29;21044;-58
2023/03/04 09:03:57;;;;;;;32.37;29.47;;;5.50;27.80;;;;;;4953086;29;20187;-57
2023/03/04 09:06:23;;;;;;;29.87;27.23;;;5.60;27.60;;;;;;4953381;28;20190;-54
2023/03/04 09:08:48;;;;;;;29.57;27.07;;;5.60;27.40;;;;;;4968892;28;20199;-55
2023/03/04 09:11:14;;;;;;;28.67;25.90;;;5.60;27.90;;;;;;4968809;28;20183;-55
2023/03/04 09:13:40;;;;;;;31.77;28.87;;;5.70;27.30;;;;;;4953373;29;20219;-55
2023/03/04 09:16:13;;;;;;;29.30;26.50;;;5.70;27.20;;;;;;4968484;28;20660;-56
2023/03/04 09:18:40;;;;;;;29.33;26.87;;;5.80;26.70;;;;;;4953000;29;20555;-57
2023/03/04 09:21:07;;;;;;;29.97;27.27;;;5.80;26.80;;;;;;4952710;29;20422;-57
2023/03/04 09:23:33;;;;;;;27.43;25.13;;;5.90;26.10;;;;;;4952867;29;20466;-57
2023/03/04 09:25:59;;;;;;;29.13;26.83;;;5.20;28.20;;;;;;4950835;29;20515;-57
2023/03/04 09:28:25;;;;;;;29.33;26.70;;;5.10;28.90;;;;;;4968018;28;20423;-55
2023/03/04 09:30:50;;;;;;;26.53;24.23;;;5.20;27.90;;;;;;4951916;29;20567;-57
2023/03/04 09:33:16;;;;;;;28.50;26.20;;;4.80;28.70;;;;;;4951780;29;20278;-57
2023/03/04 09:35:42;;;;;;;27.47;25.17;;;4.70;28.60;;;;;;4968399;28;20184;-57
2023/03/04 09:38:09;;;;;;;28.23;25.77;;;4.80;29.10;;;;;;4967655;28;20474;-57
2023/03/04 09:40:44;;;;;;;27.43;25.23;;;5.10;28.50;;;;;;4968256;28;20456;-56
2023/03/04 09:43:30;;;;;;;25.57;23.50;;;5.30;27.70;;;;;;4967514;28;20529;-54
2023/03/04 09:45:59;;;;;;;27.43;25.13;;;5.40;27.40;;;;;;4953580;29;20768;-55
2023/03/04 09:48:29;;;;;;;26.33;24.07;;;5.50;27.00;;;;;;4967715;28;20921;-56
2023/03/04 09:51:04;;;;;;;26.90;24.80;;;5.70;26.40;;;;;;4953416;28;20458;-58
2023/03/04 09:53:53;;;;;;;26.00;23.90;;;5.80;26.20;;;;;;4967806;28;20826;-58
2023/03/04 09:56:18;;;;;;;28.20;25.80;;;6.00;25.80;;;;;;4968239;28;20427;-57
2023/03/04 09:58:56;;;;;;;26.73;24.53;;;6.10;25.50;;;;;;4952952;29;20931;-57
2023/03/04 10:02:03;;;;;;;28.37;26.13;;;6.20;25.20;;;;;;4968059;28;20273;-57
2023/03/04 10:04:49;;;;;;;28.33;26.03;;;6.10;24.90;;;;;;4950561;29;20423;-59
2023/03/04 10:07:19;;;;;;;28.47;26.27;;;6.00;25.50;;;;;;4967894;28;20783;-57
2023/03/04 10:09:50;;;;;;;29.90;27.40;;;6.20;25.00;;;;;;4968072;28;20431;-58
2023/03/04 10:12:21;;;;;;;31.17;28.47;;;6.30;24.90;;;;;;4967575;28;20441;-57
2023/03/04 10:15:01;;;;;;;29.43;27.03;;;6.40;25.20;;;;;;4962124;28;20868;-61
2023/03/04 10:17:41;;;;;;;29.17;26.77;;;6.40;24.60;;;;;;4959936;28;20931;-61
2023/03/04 10:20:17;;;;;;;29.37;26.97;;;6.50;24.60;;;;;;4952122;29;20518;-62
2023/03/04 10:22:57;;;;;;;30.20;27.67;;;6.50;23.60;;;;;;4962151;28;20972;-61
2023/03/04 10:25:26;;;;;;;29.63;27.00;;;6.10;24.50;;;;;;4974908;28;20414;-61
2023/03/04 10:27:57;;;;;;;29.77;27.17;;;6.00;25.70;;;;;;4974924;28;20926;-61
2023/03/04 10:30:31;;;;;;;30.97;28.17;;;6.20;26.50;;;;;;4974746;28;20907;-58
2023/03/04 10:32:57;;;;;;;31.47;28.90;;;6.40;25.10;;;;;;4990943;28;20427;-58
2023/03/04 10:35:30;;;;;;;30.70;28.00;;;6.40;23.60;;;;;;4972061;28;20414;-55
2023/03/04 10:38:02;;;;;;;32.03;29.50;;;6.30;25.30;;;;;;4950424;28;20584;-55
2023/03/04 10:40:27;;;;;;;32.40;29.70;;;6.40;24.30;;;;;;4947734;28;20420;-54
2023/03/04 10:42:54;;;;;;;30.80;28.30;;;6.40;24.40;;;;;;4963060;28;20478;-57
2023/03/04 10:45:26;;;;;;;33.73;30.93;;;6.50;24.10;;;;;;4950758;28;20191;-55
2023/03/04 10:47:55;;;;;;;32.67;29.67;;;6.60;23.90;;;;;;4967027;28;20438;-54
2023/03/04 10:50:26;;;;;;;32.10;29.40;;;6.50;23.10;;;;;;4967525;28;20426;-55
2023/03/04 10:52:54;;;;;;;33.87;31.13;;;6.50;23.20;;;;;;4950802;29;20450;-57
2023/03/04 10:55:42;;;;;;;36.53;33.00;;;6.40;24.30;;;;;;4964890;28;20463;-57
2023/03/04 10:58:14;;;;;;;34.43;31.53;;;6.20;23.50;;;;;;4975942;28;20869;-56
2023/03/04 11:00:40;;;;;;;35.27;32.27;;;6.30;24.10;;;;;;4971051;28;20434;-57
2023/03/04 11:03:30;;;;;;;37.20;33.80;;;6.40;25.10;;;;;;4969818;28;20921;-55
2023/03/04 11:06:19;;;;;;;36.43;33.43;;;6.50;24.20;;;;;;4967976;28;20505;-56
2023/03/04 11:08:53;;;;;;;36.47;33.20;;;6.50;23.50;;;;;;4964682;28;20555;-55
2023/03/04 11:11:23;;;;;;;36.27;33.10;;;6.50;23.10;;;;;;4933354;29;20844;-56
2023/03/04 11:13:51;;;;;;;38.20;34.87;;;6.60;25.00;;;;;;4949557;28;20419;-55
2023/03/04 11:16:30;;;;;;;37.87;34.60;;;6.60;24.20;;;;;;4964638;28;20426;-57
2023/03/04 11:19:10;;;;;;;41.73;38.07;;;6.50;22.90;;;;;;4946671;29;20426;-55
2023/03/04 11:21:39;;;;;;;39.13;35.53;;;6.20;23.70;;;;;;4946213;29;20762;-57
2023/03/04 11:24:24;;;;;;;39.93;36.43;;;6.00;23.50;;;;;;4941198;29;20974;-54
2023/03/04 11:27:48;;;;;;;41.17;37.47;;;6.10;24.20;;;;;;4959980;28;20518;-57
2023/03/04 11:31:07;;;;;;;39.93;36.10;;;6.10;23.30;;;;;;4879739;29;20473;-56
2023/03/04 11:33:44;;;;;;;38.77;35.37;;;5.70;24.60;;;;;;4933862;29;20448;-42
2023/03/04 11:36:32;;;;;;;41.00;37.40;;;6.00;24.40;;;;;;4948278;29;20530;-45
2023/03/04 11:38:58;;;;;;;39.27;35.60;;;6.30;23.30;;;;;;4935766;29;20427;-44
2023/03/04 11:41:37;;;;;;;42.87;38.97;;;6.20;23.30;;;;;;4934923;29;20412;-43
2023/03/04 11:44:05;;;;;;;42.43;38.40;;;5.90;23.40;;;;;;4935471;29;20431;-44
2023/03/04 11:46:40;;;;;;;41.30;37.70;;;6.00;24.20;;;;;;4935579;29;20435;-45
2023/03/04 11:49:18;;;;;;;42.90;38.93;;;6.20;24.70;;;;;;4940270;29;20836;-45
2023/03/04 11:52:44;;;;;;;40.27;36.67;;;6.30;23.40;;;;;;4961097;28;20435;-44
2023/03/04 11:55:12;;;;;;;41.90;37.77;;;6.50;23.30;;;;;;4871887;29;20442;-45
2023/03/04 11:57:44;;;;;;;42.10;38.20;;;6.60;23.70;;;;;;4943154;29;20483;-46
2023/03/04 12:00:21;;;;;;;42.00;38.00;;;6.70;24.80;;;;;;4959136;28;20439;-44
2023/03/04 12:03:09;;;;;;;42.20;38.30;;;6.80;23.60;;;;;;4959576;28;20824;-47
2023/03/04 12:05:57;;;;;;;42.70;39.00;;;6.80;23.50;;;;;;4960840;28;20416;-43
2023/03/04 12:08:37;;;;;;;39.70;36.23;;;6.80;22.70;;;;;;4964526;28;20498;-42
2023/03/04 12:11:17;;;;;;;42.63;38.43;;;6.80;22.90;;;;;;4969593;28;20415;-42
2023/03/04 12:13:49;;;;;;;41.03;37.40;;;6.80;23.00;;;;;;4960464;28;20457;-42
2023/03/04 12:16:32;;;;;;;42.57;38.77;;;6.80;22.80;;;;;;4944759;29;20427;-48
2023/03/04 12:20:03;;;;;;;40.43;36.77;;;6.80;22.80;;;;;;4943144;29;20518;-47
2023/03/04 12:22:42;;;;;;;40.43;36.97;;;6.80;22.50;;;;;;4875305;29;20466;-47
2023/03/04 12:25:26;;;;;;;39.50;36.00;;;6.70;22.30;;;;;;4872313;29;20423;-48
2023/03/04 12:27:55;;;;;;;39.33;35.83;;;6.80;23.30;;;;;;4940306;29;20420;-42
2023/03/04 12:30:33;;;;;;;41.03;37.17;;;6.80;22.30;;;;;;4939678;29;20424;-46
2023/03/04 12:33:17;;;;;;;41.80;38.07;;;6.70;22.50;;;;;;4950465;29;20423;-42
2023/03/04 12:35:59;;;;;;;39.73;36.30;;;6.70;23.00;;;;;;4950494;29;20428;-56
2023/03/04 12:38:25;;;;;;;38.93;35.60;;;6.70;24.70;;;;;;4935840;29;20424;-55
2023/03/04 12:41:09;;;;;;;37.67;34.27;;;6.70;23.30;;;;;;4949640;29;20427;-57
2023/03/04 12:43:51;;;;;;;39.43;35.90;;;6.70;23.80;;;;;;4949857;29;20207;-56
2023/03/04 12:46:35;;;;;;;41.53;37.90;;;6.70;26.90;;;;;;4949989;29;20838;-56